sensor_id;sensor_type;location;lat;lon;timestamp;pressure;altitude;pressure_sealevel;temperature;humidity
61506;BME280;47366;51.916;4.574;2023-05-22T00:02:23;101694.84;;;14.94;76.40
61506;BME280;47366;51.916;4.574;2023-05-22T00:04:48;101697.25;;;14.99;76.28
61506;BME280;47366;51.916;4.574;2023-05-22T00:07:15;101695.59;;;14.96;76.92
61506;BME280;47366;51.916;4.574;2023-05-22T00:09:40;101688.94;;;14.88;77.41
61506;BME280;47366;51.916;4.574;2023-05-22T00:12:06;101688.94;;;14.88;77.32
61506;BME280;47366;51.916;4.574;2023-05-22T00:14:31;101681.91;;;14.83;77.35
61506;BME280;47366;51.916;4.574;2023-05-22T00:16:57;101687.28;;;14.85;76.66
61506;BME280;47366;51.916;4.574;2023-05-22T00:19:24;101690.09;;;14.83;77.25
61506;BME280;47366;51.916;4.574;2023-05-22T00:21:49;101692.84;;;14.83;77.42
61506;BME280;47366;51.916;4.574;2023-05-22T00:24:15;101688.34;;;14.82;76.86
61506;BME280;47366;51.916;4.574;2023-05-22T00:26:40;101685.03;;;14.77;77.75
61506;BME280;47366;51.916;4.574;2023-05-22T00:29:06;101682.31;;;14.77;78.20
61506;BME280;47366;51.916;4.574;2023-05-22T00:31:31;101688.84;;;14.75;77.98
61506;BME280;47366;51.916;4.574;2023-05-22T00:33:57;101689.72;;;14.75;77.52
61506;BME280;47366;51.916;4.574;2023-05-22T00:36:23;101685.94;;;14.78;77.55
61506;BME280;47366;51.916;4.574;2023-05-22T00:38:48;101679.50;;;14.79;77.26
61506;BME280;47366;51.916;4.574;2023-05-22T00:41:13;101675.91;;;14.78;76.96
61506;BME280;47366;51.916;4.574;2023-05-22T00:43:39;101674.34;;;14.74;76.91
61506;BME280;47366;51.916;4.574;2023-05-22T00:46:04;101668.31;;;14.69;77.18
61506;BME280;47366;51.916;4.574;2023-05-22T00:48:31;101672.41;;;14.76;76.88
61506;BME280;47366;51.916;4.574;2023-05-22T00:50:57;101667.03;;;14.75;77.49
61506;BME280;47366;51.916;4.574;2023-05-22T00:53:24;101659.06;;;14.72;77.28
61506;BME280;47366;51.916;4.574;2023-05-22T00:55:52;101670.63;;;14.75;76.79
61506;BME280;47366;51.916;4.574;2023-05-22T00:58:18;101669.88;;;14.73;77.40
61506;BME280;47366;51.916;4.574;2023-05-22T01:00:44;101649.44;;;14.66;77.44
61506;BME280;47366;51.916;4.574;2023-05-22T01:03:11;101645.06;;;14.63;77.22
61506;BME280;47366;51.916;4.574;2023-05-22T01:05:37;101651.28;;;14.65;78.04
61506;BME280;47366;51.916;4.574;2023-05-22T01:08:04;101660.22;;;14.68;77.36
61506;BME280;47366;51.916;4.574;2023-05-22T01:10:32;101651.28;;;14.65;77.66
61506;BME280;47366;51.916;4.574;2023-05-22T01:29:24;101635.13;;;14.48;79.66
61506;BME280;47366;51.916;4.574;2023-05-22T01:31:54;101632.47;;;14.47;79.03
61506;BME280;47366;51.916;4.574;2023-05-22T01:34:21;101630.94;;;14.42;79.57
61506;BME280;47366;51.916;4.574;2023-05-22T01:36:49;101618.19;;;14.43;79.11
61506;BME280;47366;51.916;4.574;2023-05-22T01:39:16;101610.41;;;14.37;79.47
61506;BME280;47366;51.916;4.574;2023-05-22T01:41:42;101607.97;;;14.32;79.75
61506;BME280;47366;51.916;4.574;2023-05-22T01:44:07;101610.53;;;14.35;80.41
61506;BME280;47366;51.916;4.574;2023-05-22T01:46:32;101611.41;;;14.36;79.66
61506;BME280;47366;51.916;4.574;2023-05-22T01:48:58;101604.09;;;14.36;80.42
61506;BME280;47366;51.916;4.574;2023-05-22T01:51:52;101608.66;;;14.36;80.27
61506;BME280;47366;51.916;4.574;2023-05-22T01:57:09;101610.53;;;14.35;79.75
61506;BME280;47366;51.916;4.574;2023-05-22T01:59:43;101597.06;;;14.32;80.54
61506;BME280;47366;51.916;4.574;2023-05-22T02:02:10;101607.03;;;14.33;80.12
61506;BME280;47366;51.916;4.574;2023-05-22T02:04:41;101608.56;;;14.37;80.20
61506;BME280;47366;51.916;4.574;2023-05-22T02:07:08;101595.34;;;14.31;80.32
61506;BME280;47366;51.916;4.574;2023-05-22T02:09:36;101591.53;;;14.34;79.26
61506;BME280;47366;51.916;4.574;2023-05-22T02:12:03;101581.34;;;14.23;79.82
61506;BME280;47366;51.916;4.574;2023-05-22T02:14:30;101582.00;;;14.27;80.43
61506;BME280;47366;51.916;4.574;2023-05-22T02:16:56;101603.50;;;14.31;80.59
61506;BME280;47366;51.916;4.574;2023-05-22T02:19:22;101584.75;;;14.27;80.02
61506;BME280;47366;51.916;4.574;2023-05-22T02:21:47;101585.44;;;14.30;80.49
61506;BME280;47366;51.916;4.574;2023-05-22T02:24:13;101578.41;;;14.26;80.52
61506;BME280;47366;51.916;4.574;2023-05-22T02:26:38;101586.94;;;14.34;79.93
61506;BME280;47366;51.916;4.574;2023-05-22T02:29:04;101574.31;;;14.33;80.25
61506;BME280;47366;51.916;4.574;2023-05-22T02:31:30;101585.88;;;14.37;80.31
61506;BME280;47366;51.916;4.574;2023-05-22T02:33:55;101585.44;;;14.30;79.94
61506;BME280;47366;51.916;4.574;2023-05-22T02:36:20;101586.38;;;14.29;79.48
61506;BME280;47366;51.916;4.574;2023-05-22T02:38:47;101584.81;;;14.25;79.61
61506;BME280;47366;51.916;4.574;2023-05-22T02:41:12;101578.81;;;14.20;80.53
61506;BME280;47366;51.916;4.574;2023-05-22T02:43:38;101578.16;;;14.16;80.40
61506;BME280;47366;51.916;4.574;2023-05-22T02:46:03;101587.66;;;14.23;80.59
61506;BME280;47366;51.916;4.574;2023-05-22T02:48:28;101593.22;;;14.22;81.38
61506;BME280;47366;51.916;4.574;2023-05-22T02:50:54;101581.66;;;14.18;80.40
61506;BME280;47366;51.916;4.574;2023-05-22T02:53:19;101591.66;;;14.18;80.26
61506;BME280;47366;51.916;4.574;2023-05-22T02:55:45;101603.25;;;14.21;80.76
61506;BME280;47366;51.916;4.574;2023-05-22T02:58:11;101593.50;;;14.17;80.64
61506;BME280;47366;51.916;4.574;2023-05-22T03:00:37;101597.22;;;14.16;80.06
61506;BME280;47366;51.916;4.574;2023-05-22T03:03:03;101606.91;;;14.20;80.11
61506;BME280;47366;51.916;4.574;2023-05-22T03:05:29;101601.59;;;14.19;80.01
61506;BME280;47366;51.916;4.574;2023-05-22T03:07:55;101608.97;;;14.17;81.08
61506;BME280;47366;51.916;4.574;2023-05-22T03:10:21;101616.28;;;14.16;80.63
61506;BME280;47366;51.916;4.574;2023-05-22T03:12:47;101605.97;;;14.07;80.50
61506;BME280;47366;51.916;4.574;2023-05-22T03:15:12;101591.38;;;14.08;80.71
61506;BME280;47366;51.916;4.574;2023-05-22T03:17:37;101600.53;;;14.07;81.24
61506;BME280;47366;51.916;4.574;2023-05-22T03:20:03;101607.06;;;14.05;80.81
61506;BME280;47366;51.916;4.574;2023-05-22T03:22:29;101606.06;;;14.06;80.55
61506;BME280;47366;51.916;4.574;2023-05-22T03:24:55;101605.78;;;14.10;80.13
61506;BME280;47366;51.916;4.574;2023-05-22T03:27:20;101590.78;;;14.03;81.08
61506;BME280;47366;51.916;4.574;2023-05-22T03:29:45;101589.06;;;14.02;80.89
61506;BME280;47366;51.916;4.574;2023-05-22T03:32:11;101600.81;;;14.02;81.81
61506;BME280;47366;51.916;4.574;2023-05-22T03:34:36;101596.44;;;14.00;82.47
61506;BME280;47366;51.916;4.574;2023-05-22T03:37:02;101595.75;;;13.96;81.72
61506;BME280;47366;51.916;4.574;2023-05-22T03:39:27;101596.53;;;13.98;81.20
61506;BME280;47366;51.916;4.574;2023-05-22T03:41:52;101599.84;;;14.03;81.22
61506;BME280;47366;51.916;4.574;2023-05-22T03:44:18;101594.50;;;14.02;81.88
61506;BME280;47366;51.916;4.574;2023-05-22T03:46:43;101584.47;;;14.02;81.53
61506;BME280;47366;51.916;4.574;2023-05-22T03:49:08;101576.59;;;13.98;82.01
61506;BME280;47366;51.916;4.574;2023-05-22T03:51:34;101584.97;;;13.95;81.78
61506;BME280;47366;51.916;4.574;2023-05-22T03:53:59;101583.78;;;13.99;82.25
61506;BME280;47366;51.916;4.574;2023-05-22T03:56:25;101582.34;;;13.93;82.90
61506;BME280;47366;51.916;4.574;2023-05-22T03:58:50;101589.34;;;13.97;82.95
61506;BME280;47366;51.916;4.574;2023-05-22T04:01:16;101588.66;;;13.94;82.51
61506;BME280;47366;51.916;4.574;2023-05-22T04:03:42;101586.13;;;13.91;82.24
61506;BME280;47366;51.916;4.574;2023-05-22T04:06:07;101584.84;;;13.96;82.80
61506;BME280;47366;51.916;4.574;2023-05-22T04:08:32;101596.66;;;13.97;82.96
61506;BME280;47366;51.916;4.574;2023-05-22T04:10:58;101590.31;;;13.96;82.27
61506;BME280;47366;51.916;4.574;2023-05-22T04:13:23;101583.78;;;13.99;81.85
61506;BME280;47366;51.916;4.574;2023-05-22T04:15:48;101592.75;;;14.01;83.08
61506;BME280;47366;51.916;4.574;2023-05-22T04:18:14;101585.75;;;13.97;82.67
61506;BME280;47366;51.916;4.574;2023-05-22T04:20:40;101575.72;;;13.97;83.05
61506;BME280;47366;51.916;4.574;2023-05-22T04:23:06;101590.00;;;14.01;82.70
61506;BME280;47366;51.916;4.574;2023-05-22T04:25:32;101591.66;;;14.03;82.20
61506;BME280;47366;51.916;4.574;2023-05-22T04:27:58;101584.47;;;14.02;82.46
61506;BME280;47366;51.916;4.574;2023-05-22T04:30:26;101593.63;;;14.01;82.61
61506;BME280;47366;51.916;4.574;2023-05-22T04:32:51;101592.66;;;14.02;83.09
61506;BME280;47366;51.916;4.574;2023-05-22T04:35:17;101593.53;;;14.03;82.74
61506;BME280;47366;51.916;4.574;2023-05-22T04:37:43;101597.81;;;14.07;82.56
61506;BME280;47366;51.916;4.574;2023-05-22T04:40:10;101587.97;;;14.05;82.26
61506;BME280;47366;51.916;4.574;2023-05-22T04:42:37;101603.75;;;14.14;81.83
61506;BME280;47366;51.916;4.574;2023-05-22T04:45:06;101593.63;;;14.16;82.32
61506;BME280;47366;51.916;4.574;2023-05-22T04:47:31;101593.63;;;14.16;81.74
61506;BME280;47366;51.916;4.574;2023-05-22T04:49:57;101590.91;;;14.16;81.91
61506;BME280;47366;51.916;4.574;2023-05-22T04:52:24;101603.63;;;14.15;82.41
61506;BME280;47366;51.916;4.574;2023-05-22T04:54:49;101600.03;;;14.15;83.62
61506;BME280;47366;51.916;4.574;2023-05-22T04:57:16;101606.91;;;14.20;82.16
61506;BME280;47366;51.916;4.574;2023-05-22T04:59:42;101604.41;;;14.17;82.09
61506;BME280;47366;51.916;4.574;2023-05-22T05:02:08;101609.75;;;14.19;82.38
61506;BME280;47366;51.916;4.574;2023-05-22T05:04:33;101605.97;;;14.21;82.45
61506;BME280;47366;51.916;4.574;2023-05-22T05:06:59;101597.78;;;14.21;82.26
61506;BME280;47366;51.916;4.574;2023-05-22T05:09:24;101596.91;;;14.21;81.96
61506;BME280;47366;51.916;4.574;2023-05-22T05:11:51;101594.75;;;14.26;82.02
61506;BME280;47366;51.916;4.574;2023-05-22T05:14:16;101596.22;;;14.32;81.82
61506;BME280;47366;51.916;4.574;2023-05-22T05:16:42;101608.66;;;14.36;82.12
61506;BME280;47366;51.916;4.574;2023-05-22T05:19:07;101606.72;;;14.38;81.17
61506;BME280;47366;51.916;4.574;2023-05-22T05:21:33;101601.44;;;14.35;81.80
61506;BME280;47366;51.916;4.574;2023-05-22T05:23:58;101612.06;;;14.39;82.00
61506;BME280;47366;51.916;4.574;2023-05-22T05:26:23;101616.47;;;14.42;80.96
61506;BME280;47366;51.916;4.574;2023-05-22T05:28:51;101609.63;;;14.35;81.83
61506;BME280;47366;51.916;4.574;2023-05-22T05:31:20;101614.91;;;14.38;81.76
61506;BME280;47366;51.916;4.574;2023-05-22T05:33:45;101614.41;;;14.31;82.61
61506;BME280;47366;51.916;4.574;2023-05-22T05:36:10;101627.94;;;14.33;82.47
61506;BME280;47366;51.916;4.574;2023-05-22T05:38:36;101613.44;;;14.32;81.96
61506;BME280;47366;51.916;4.574;2023-05-22T05:41:01;101612.34;;;14.35;81.77
61506;BME280;47366;51.916;4.574;2023-05-22T05:43:27;101623.94;;;14.38;81.29
61506;BME280;47366;51.916;4.574;2023-05-22T05:45:52;101622.88;;;14.41;81.37
61506;BME280;47366;51.916;4.574;2023-05-22T05:48:17;101626.66;;;14.38;81.86
61506;BME280;47366;51.916;4.574;2023-05-22T05:50:43;101632.47;;;14.47;80.84
61506;BME280;47366;51.916;4.574;2023-05-22T05:53:08;101632.31;;;14.50;80.75
61506;BME280;47366;51.916;4.574;2023-05-22T05:55:34;101623.25;;;14.49;81.23
61506;BME280;47366;51.916;4.574;2023-05-22T05:57:59;101639.41;;;14.52;81.70
61506;BME280;47366;51.916;4.574;2023-05-22T06:00:24;101643.00;;;14.53;80.74
61506;BME280;47366;51.916;4.574;2023-05-22T06:02:50;101631.13;;;14.54;81.17
61506;BME280;47366;51.916;4.574;2023-05-22T06:05:15;101628.09;;;14.58;80.94
61506;BME280;47366;51.916;4.574;2023-05-22T06:07:43;101634.16;;;14.63;81.19
61506;BME280;47366;51.916;4.574;2023-05-22T06:10:10;101632.56;;;14.74;81.19
61506;BME280;47366;51.916;4.574;2023-05-22T06:12:36;101632.81;;;14.83;81.84
61506;BME280;47366;51.916;4.574;2023-05-22T06:15:02;101644.63;;;14.97;81.30
61506;BME280;47366;51.916;4.574;2023-05-22T06:17:29;101646.19;;;15.01;81.10
61506;BME280;47366;51.916;4.574;2023-05-22T06:19:55;101645.34;;;15.13;80.15
61506;BME280;47366;51.916;4.574;2023-05-22T06:22:20;101638.63;;;15.19;81.13
61506;BME280;47366;51.916;4.574;2023-05-22T06:24:49;101642.13;;;15.21;79.88
61506;BME280;47366;51.916;4.574;2023-05-22T06:27:15;101651.44;;;15.31;80.29
61506;BME280;47366;51.916;4.574;2023-05-22T06:29:40;101651.13;;;15.36;79.95
61506;BME280;47366;51.916;4.574;2023-05-22T06:32:06;101654.72;;;15.49;79.66
61506;BME280;47366;51.916;4.574;2023-05-22T06:34:31;101661.50;;;15.56;79.89
61506;BME280;47366;51.916;4.574;2023-05-22T06:36:56;101656.19;;;15.67;79.55
61506;BME280;47366;51.916;4.574;2023-05-22T06:39:22;101668.69;;;15.71;79.83
61506;BME280;47366;51.916;4.574;2023-05-22T06:41:47;101670.66;;;15.82;79.24
61506;BME280;47366;51.916;4.574;2023-05-22T06:44:12;101672.09;;;15.88;79.10
61506;BME280;47366;51.916;4.574;2023-05-22T06:46:38;101670.31;;;15.87;78.67
61506;BME280;47366;51.916;4.574;2023-05-22T06:49:03;101674.16;;;15.84;78.79
61506;BME280;47366;51.916;4.574;2023-05-22T06:51:29;101683.25;;;15.98;78.80
61506;BME280;47366;51.916;4.574;2023-05-22T06:53:55;101680.06;;;16.04;79.41
61506;BME280;47366;51.916;4.574;2023-05-22T06:56:21;101682.47;;;15.96;79.29
61506;BME280;47366;51.916;4.574;2023-05-22T06:58:47;101659.84;;;15.93;79.67
61506;BME280;47366;51.916;4.574;2023-05-22T07:01:12;101665.97;;;15.97;79.05
61506;BME280;47366;51.916;4.574;2023-05-22T07:03:37;101671.22;;;16.00;78.96
61506;BME280;47366;51.916;4.574;2023-05-22T07:06:03;101691.13;;;16.02;79.05
61506;BME280;47366;51.916;4.574;2023-05-22T07:08:28;101684.88;;;16.00;79.48
61506;BME280;47366;51.916;4.574;2023-05-22T07:10:53;101667.72;;;15.98;78.82
61506;BME280;47366;51.916;4.574;2023-05-22T07:13:19;101673.94;;;16.00;79.52
61506;BME280;47366;51.916;4.574;2023-05-22T07:15:44;101677.09;;;15.94;79.36
61506;BME280;47366;51.916;4.574;2023-05-22T07:18:10;101680.94;;;15.91;79.22
61506;BME280;47366;51.916;4.574;2023-05-22T07:20:36;101690.66;;;15.96;79.29
61506;BME280;47366;51.916;4.574;2023-05-22T07:23:02;101694.25;;;15.96;79.79
61506;BME280;47366;51.916;4.574;2023-05-22T07:25:28;101675.47;;;15.91;79.62
61506;BME280;47366;51.916;4.574;2023-05-22T07:27:54;101679.41;;;16.00;79.46
61506;BME280;47366;51.916;4.574;2023-05-22T07:30:20;101673.94;;;16.00;79.20
61506;BME280;47366;51.916;4.574;2023-05-22T07:32:45;101669.31;;;16.13;79.68
61506;BME280;47366;51.916;4.574;2023-05-22T07:35:11;101666.16;;;16.20;79.50
61506;BME280;47366;51.916;4.574;2023-05-22T07:37:36;101674.47;;;16.31;79.08
61506;BME280;47366;51.916;4.574;2023-05-22T07:40:05;101661.31;;;16.49;79.33
61506;BME280;47366;51.916;4.574;2023-05-22T07:42:36;101670.09;;;16.78;78.58
61506;BME280;47366;51.916;4.574;2023-05-22T07:45:02;101675.28;;;17.07;77.20
61506;BME280;47366;51.916;4.574;2023-05-22T07:47:28;101674.03;;;17.35;77.56
61506;BME280;47366;51.916;4.574;2023-05-22T07:49:53;101671.50;;;17.56;76.56
61506;BME280;47366;51.916;4.574;2023-05-22T07:52:18;101677.16;;;17.77;75.68
61506;BME280;47366;51.916;4.574;2023-05-22T07:54:45;101676.63;;;17.96;75.09
61506;BME280;47366;51.916;4.574;2023-05-22T07:57:11;101686.22;;;18.13;74.74
61506;BME280;47366;51.916;4.574;2023-05-22T07:59:36;101696.34;;;18.35;74.48
61506;BME280;47366;51.916;4.574;2023-05-22T08:02:02;101682.38;;;18.49;73.71
61506;BME280;47366;51.916;4.574;2023-05-22T08:04:27;101690.72;;;18.70;73.12
61506;BME280;47366;51.916;4.574;2023-05-22T08:06:54;101681.09;;;18.87;73.08
61506;BME280;47366;51.916;4.574;2023-05-22T08:09:19;101683.72;;;19.00;72.77
61506;BME280;47366;51.916;4.574;2023-05-22T08:11:45;101675.03;;;19.16;72.34
61506;BME280;47366;51.916;4.574;2023-05-22T08:14:11;101689.97;;;19.34;72.38
61506;BME280;47366;51.916;4.574;2023-05-22T08:16:36;101678.94;;;19.45;71.75
61506;BME280;47366;51.916;4.574;2023-05-22T08:19:01;101679.59;;;19.59;71.19
61506;BME280;47366;51.916;4.574;2023-05-22T08:21:27;101679.47;;;19.71;71.33
61506;BME280;47366;51.916;4.574;2023-05-22T08:23:52;101678.38;;;19.84;70.89
61506;BME280;47366;51.916;4.574;2023-05-22T08:26:17;101677.56;;;19.93;70.29
61506;BME280;47366;51.916;4.574;2023-05-22T08:28:43;101678.78;;;20.00;70.19
61506;BME280;47366;51.916;4.574;2023-05-22T08:31:11;101677.28;;;20.17;70.08
61506;BME280;47366;51.916;4.574;2023-05-22T08:33:36;101669.19;;;20.25;69.53
61506;BME280;47366;51.916;4.574;2023-05-22T08:36:02;101659.84;;;20.37;69.42
61506;BME280;47366;51.916;4.574;2023-05-22T08:38:27;101662.72;;;20.57;69.18
61506;BME280;47366;51.916;4.574;2023-05-22T08:40:53;101660.13;;;20.65;68.49
61506;BME280;47366;51.916;4.574;2023-05-22T08:43:20;101658.41;;;20.74;68.81
61506;BME280;47366;51.916;4.574;2023-05-22T08:45:50;101665.53;;;20.86;68.06
61506;BME280;47366;51.916;4.574;2023-05-22T08:48:18;101659.31;;;20.94;67.58
61506;BME280;47366;51.916;4.574;2023-05-22T08:50:51;101656.44;;;21.15;67.52
61506;BME280;47366;51.916;4.574;2023-05-22T08:53:21;101669.22;;;21.26;67.63
61506;BME280;47366;51.916;4.574;2023-05-22T08:55:48;101660.25;;;21.33;67.50
61506;BME280;47366;51.916;4.574;2023-05-22T08:58:14;101668.97;;;21.48;67.03
61506;BME280;47366;51.916;4.574;2023-05-22T09:00:40;101660.84;;;21.47;65.98
61506;BME280;47366;51.916;4.574;2023-05-22T09:03:06;101657.75;;;21.59;66.06
61506;BME280;47366;51.916;4.574;2023-05-22T09:05:34;101660.53;;;21.79;65.72
61506;BME280;47366;51.916;4.574;2023-05-22T09:08:02;101649.75;;;21.76;64.95
61506;BME280;47366;51.916;4.574;2023-05-22T09:10:28;101647.88;;;21.86;64.62
61506;BME280;47366;51.916;4.574;2023-05-22T09:13:04;101658.13;;;22.03;64.42
61506;BME280;47366;51.916;4.574;2023-05-22T09:15:32;101648.38;;;22.09;64.58
61506;BME280;47366;51.916;4.574;2023-05-22T09:17:59;101663.91;;;22.30;63.93
61506;BME280;47366;51.916;4.574;2023-05-22T09:20:24;101655.47;;;22.31;63.67
61506;BME280;47366;51.916;4.574;2023-05-22T09:22:50;101650.44;;;22.44;63.04
61506;BME280;47366;51.916;4.574;2023-05-22T09:25:20;101645.34;;;22.50;62.52
61506;BME280;47366;51.916;4.574;2023-05-22T09:27:49;101654.00;;;22.64;62.85
61506;BME280;47366;51.916;4.574;2023-05-22T09:30:15;101652.50;;;22.70;62.83
61506;BME280;47366;51.916;4.574;2023-05-22T09:32:41;101652.53;;;22.88;62.43
61506;BME280;47366;51.916;4.574;2023-05-22T09:35:07;101642.91;;;22.92;61.44
61506;BME280;47366;51.916;4.574;2023-05-22T09:37:33;101654.44;;;22.87;62.08
61506;BME280;47366;51.916;4.574;2023-05-22T09:40:04;101657.13;;;22.97;62.37
61506;BME280;47366;51.916;4.574;2023-05-22T09:42:32;101650.22;;;23.11;61.43
61506;BME280;47366;51.916;4.574;2023-05-22T09:45:02;101648.34;;;23.29;61.48
61506;BME280;47366;51.916;4.574;2023-05-22T09:47:28;101651.19;;;23.38;61.25
61506;BME280;47366;51.916;4.574;2023-05-22T09:49:56;101644.38;;;23.50;60.61
61506;BME280;47366;51.916;4.574;2023-05-22T09:52:22;101639.78;;;23.59;60.98
61506;BME280;47366;51.916;4.574;2023-05-22T09:54:51;101637.97;;;23.67;58.92
61506;BME280;47366;51.916;4.574;2023-05-22T09:57:20;101642.56;;;23.77;60.60
61506;BME280;47366;51.916;4.574;2023-05-22T09:59:51;101641.63;;;23.94;60.08
61506;BME280;47366;51.916;4.574;2023-05-22T10:02:20;101637.34;;;24.00;60.16
61506;BME280;47366;51.916;4.574;2023-05-22T10:04:47;101634.09;;;24.04;60.22
61506;BME280;47366;51.916;4.574;2023-05-22T10:07:16;101639.19;;;24.17;59.44
61506;BME280;47366;51.916;4.574;2023-05-22T10:09:43;101634.31;;;24.11;59.82
61506;BME280;47366;51.916;4.574;2023-05-22T10:12:11;101628.22;;;24.07;59.38
61506;BME280;47366;51.916;4.574;2023-05-22T10:14:40;101644.91;;;24.24;57.93
61506;BME280;47366;51.916;4.574;2023-05-22T10:17:06;101646.06;;;24.39;59.04
61506;BME280;47366;51.916;4.574;2023-05-22T10:19:34;101643.34;;;24.47;58.82
61506;BME280;47366;51.916;4.574;2023-05-22T10:22:01;101648.25;;;24.62;57.77
61506;BME280;47366;51.916;4.574;2023-05-22T10:24:28;101636.53;;;24.42;59.06
61506;BME280;47366;51.916;4.574;2023-05-22T10:26:53;101649.66;;;24.57;57.63
61506;BME280;47366;51.916;4.574;2023-05-22T10:29:34;101644.34;;;24.80;57.66
61506;BME280;47366;51.916;4.574;2023-05-22T10:32:08;101646.50;;;25.03;57.28
61506;BME280;47366;51.916;4.574;2023-05-22T10:34:50;101643.69;;;24.87;57.27
61506;BME280;47366;51.916;4.574;2023-05-22T10:37:36;101648.81;;;24.65;58.01
61506;BME280;47366;51.916;4.574;2023-05-22T10:40:12;101636.16;;;24.71;57.10
61506;BME280;47366;51.916;4.574;2023-05-22T10:42:38;101640.31;;;24.67;57.84
61506;BME280;47366;51.916;4.574;2023-05-22T10:45:08;101630.66;;;24.79;57.33
61506;BME280;47366;51.916;4.574;2023-05-22T10:47:35;101632.28;;;24.98;57.25
61506;BME280;47366;51.916;4.574;2023-05-22T10:50:07;101626.56;;;25.08;56.46
61506;BME280;47366;51.916;4.574;2023-05-22T10:52:34;101627.44;;;25.08;55.87
61506;BME280;47366;51.916;4.574;2023-05-22T10:55:00;101623.63;;;25.09;56.66
61506;BME280;47366;51.916;4.574;2023-05-22T10:57:26;101629.03;;;25.19;56.57
61506;BME280;47366;51.916;4.574;2023-05-22T11:00:25;101626.25;;;25.19;55.24
61506;BME280;47366;51.916;4.574;2023-05-22T11:03:02;101619.31;;;25.15;55.35
61506;BME280;47366;51.916;4.574;2023-05-22T11:08:11;101629.44;;;24.39;57.71
61506;BME280;47366;51.916;4.574;2023-05-22T11:10:56;101626.53;;;24.14;58.31
61506;BME280;47366;51.916;4.574;2023-05-22T11:13:25;101627.09;;;24.26;57.69
61506;BME280;47366;51.916;4.574;2023-05-22T11:15:53;101624.50;;;24.51;58.13
61506;BME280;47366;51.916;4.574;2023-05-22T11:18:19;101623.16;;;24.63;57.21
61506;BME280;47366;51.916;4.574;2023-05-22T11:20:45;101630.47;;;24.80;57.35
61506;BME280;47366;51.916;4.574;2023-05-22T11:23:10;101626.75;;;24.98;56.60
61506;BME280;47366;51.916;4.574;2023-05-22T11:25:36;101626.19;;;25.02;56.40
61506;BME280;47366;51.916;4.574;2023-05-22T11:28:05;101631.41;;;25.06;56.36
61506;BME280;47366;51.916;4.574;2023-05-22T11:30:32;101629.34;;;25.16;56.21
61506;BME280;47366;51.916;4.574;2023-05-22T11:32:59;101631.81;;;25.19;56.15
61506;BME280;47366;51.916;4.574;2023-05-22T11:35:25;101627.16;;;25.19;56.13
61506;BME280;47366;51.916;4.574;2023-05-22T11:37:52;101621.75;;;25.18;55.67
61506;BME280;47366;51.916;4.574;2023-05-22T11:40:22;101619.69;;;25.28;55.48
61506;BME280;47366;51.916;4.574;2023-05-22T11:42:51;101609.81;;;25.34;55.74
61506;BME280;47366;51.916;4.574;2023-05-22T11:45:17;101608.75;;;25.43;55.65
61506;BME280;47366;51.916;4.574;2023-05-22T11:47:43;101620.75;;;25.60;55.70
61506;BME280;47366;51.916;4.574;2023-05-22T11:50:10;101614.47;;;25.66;55.18
61506;BME280;47366;51.916;4.574;2023-05-22T11:52:37;101610.31;;;25.62;55.64
61506;BME280;47366;51.916;4.574;2023-05-22T11:55:03;101617.09;;;25.51;55.67
61506;BME280;47366;51.916;4.574;2023-05-22T11:57:35;101613.44;;;25.59;55.12
61506;BME280;47366;51.916;4.574;2023-05-22T12:00:01;101619.50;;;25.71;54.77
61506;BME280;47366;51.916;4.574;2023-05-22T12:02:28;101625.41;;;25.59;54.65
61506;BME280;47366;51.916;4.574;2023-05-22T12:04:57;101619.16;;;25.57;54.41
61506;BME280;47366;51.916;4.574;2023-05-22T12:07:24;101628.00;;;25.28;55.03
61506;BME280;47366;51.916;4.574;2023-05-22T12:09:51;101632.00;;;25.17;55.78
61506;BME280;47366;51.916;4.574;2023-05-22T12:12:17;101628.88;;;25.29;55.74
61506;BME280;47366;51.916;4.574;2023-05-22T12:14:43;101632.34;;;25.31;54.97
61506;BME280;47366;51.916;4.574;2023-05-22T12:17:11;101635.97;;;25.23;55.56
61506;BME280;47366;51.916;4.574;2023-05-22T12:19:41;101644.94;;;25.09;55.14
61506;BME280;47366;51.916;4.574;2023-05-22T12:22:10;101638.72;;;25.15;55.82
61506;BME280;47366;51.916;4.574;2023-05-22T12:24:40;101634.56;;;25.19;55.29
61506;BME280;47366;51.916;4.574;2023-05-22T12:27:09;101638.06;;;25.29;55.35
61506;BME280;47366;51.916;4.574;2023-05-22T12:29:37;101633.72;;;25.35;54.54
61506;BME280;47366;51.916;4.574;2023-05-22T12:32:06;101642.75;;;25.37;54.50
61506;BME280;47366;51.916;4.574;2023-05-22T12:34:33;101636.84;;;25.24;54.83
61506;BME280;47366;51.916;4.574;2023-05-22T12:36:59;101637.03;;;25.22;55.17
61506;BME280;47366;51.916;4.574;2023-05-22T12:39:24;101647.41;;;25.20;55.24
61506;BME280;47366;51.916;4.574;2023-05-22T12:41:50;101637.88;;;25.23;54.63
61506;BME280;47366;51.916;4.574;2023-05-22T12:44:15;101642.41;;;25.32;55.04
61506;BME280;47366;51.916;4.574;2023-05-22T12:46:41;101647.63;;;25.27;54.78
61506;BME280;47366;51.916;4.574;2023-05-22T12:49:07;101640.75;;;25.05;55.11
61506;BME280;47366;51.916;4.574;2023-05-22T12:51:33;101644.03;;;24.92;55.95
61506;BME280;47366;51.916;4.574;2023-05-22T12:54:02;101648.03;;;24.97;55.67
61506;BME280;47366;51.916;4.574;2023-05-22T12:56:28;101643.47;;;24.80;55.62
61506;BME280;47366;51.916;4.574;2023-05-22T12:58:55;101648.16;;;24.88;55.70
61506;BME280;47366;51.916;4.574;2023-05-22T13:01:21;101653.25;;;25.00;55.96
61506;BME280;47366;51.916;4.574;2023-05-22T13:03:48;101650.78;;;24.97;55.69
61506;BME280;47366;51.916;4.574;2023-05-22T13:06:13;101645.94;;;24.91;55.86
61506;BME280;47366;51.916;4.574;2023-05-22T13:08:39;101653.91;;;24.86;55.61
61506;BME280;47366;51.916;4.574;2023-05-22T13:11:04;101654.84;;;24.69;56.08